Time;durP1;ratioP1;P1;durP2;ratioP2;P2;SDS_P1;SDS_P2;PMS_P1;PMS_P2;Temp;Humidity;BMP_temperature;BMP_pressure;BME280_temperature;BME280_humidity;BME280_pressure;Samples;Min_cycle;Max_cycle;Signal;HPM_P1;HPM_P2
2022/12/28 00:01:25;;;;;;;;;;;;;;;;;;7364065;19;19929;-77
2022/12/28 00:03:50;;;;;;;;;;;;;;;;;;7363486;19;19976;-77
2022/12/28 00:06:16;;;;;;;;;;;;;;;;;;7357091;19;19919;-76
2022/12/28 00:08:41;;;;;;;;;;;;;;;;;;7364953;19;19999;-77
2022/12/28 00:11:06;;;;;;;;;;;;;;;;;;7363824;19;20051;-77
2022/12/28 00:13:31;;;;;;;;;;;;;;;;;;7359171;19;19923;-77
2022/12/28 00:15:56;;;;;;;;;;;;;;;;;;7364086;19;19982;-77
2022/12/28 00:18:21;;;;;;;;;;;;;;;;;;7362067;19;20334;-78
2022/12/28 00:20:47;;;;;;;;;;;;;;;;;;7365442;19;19925;-78
2022/12/28 00:23:12;;;;;;;;;;;;;;;;;;7366086;19;20337;-78
2022/12/28 00:25:37;;;;;;;;;;;;;;;;;;7365348;19;20046;-77
2022/12/28 00:28:02;;;;;;;;;;;;;;;;;;7359950;19;19919;-76
2022/12/28 00:30:27;;;;;;;;;;;;;;;;;;7364972;19;20068;-77
2022/12/28 00:32:52;;;;;;;;;;;;;;;;;;7368882;19;19923;-78
2022/12/28 00:35:17;;;;;;;;;;;;;;;;;;7352319;19;19946;-77
2022/12/28 00:37:42;;;;;;;;;;;;;;;;;;7363719;19;20202;-78
2022/12/28 00:40:07;;;;;;;;;;;;;;;;;;7363825;19;20240;-76
2022/12/28 00:42:33;;;;;;;;;;;;;;;;;;7348474;19;19919;-76
2022/12/28 00:44:58;;;;;;;;;;;;;;;;;;7357784;19;19919;-77
2022/12/28 00:47:23;;;;;;;;;;;;;;;;;;7364138;19;19919;-77
2022/12/28 00:49:48;;;;;;;;;;;;;;;;;;7358929;19;19951;-77
2022/12/28 00:52:13;;;;;;;;;;;;;;;;;;7360518;19;19927;-77
2022/12/28 00:54:38;;;;;;;;;;;;;;;;;;7365894;19;19919;-77
2022/12/28 00:57:04;;;;;;;;;;;;;;;;;;7358554;19;19931;-75
2022/12/28 00:59:29;;;;;;;;;;;;;;;;;;7363130;19;19915;-77
2022/12/28 01:01:54;;;;;;;;;;;;;;;;;;7367086;19;19971;-77
2022/12/28 01:04:19;;;;;;;;;;;;;;;;;;7341827;19;19979;-77
2022/12/28 01:06:44;;;;;;;;;;;;;;;;;;7363915;19;19926;-77
2022/12/28 01:09:09;;;;;;;;;;;;;;;;;;7359290;19;20262;-77
2022/12/28 01:11:34;;;;;;;;;;;;;;;;;;7366040;19;19931;-77
2022/12/28 01:14:00;;;;;;;;;;;;;;;;;;7359069;19;20019;-75
2022/12/28 01:16:25;;;;;;;;;;;;;;;;;;7354099;19;19927;-77
2022/12/28 01:18:50;;;;;;;;;;;;;;;;;;7362047;19;19919;-77
2022/12/28 01:21:15;;;;;;;;;;;;;;;;;;7362181;19;19918;-77
2022/12/28 01:23:40;;;;;;;;;;;;;;;;;;7366084;19;20027;-77
2022/12/28 01:26:05;;;;;;;;;;;;;;;;;;7358936;19;20017;-75
2022/12/28 01:28:30;;;;;;;;;;;;;;;;;;7359088;19;20547;-76
2022/12/28 01:30:56;;;;;;;;;;;;;;;;;;7361118;19;20101;-77
2022/12/28 01:33:21;;;;;;;;;;;;;;;;;;7358253;19;20709;-76
2022/12/28 01:35:46;;;;;;;;;;;;;;;;;;7356716;19;20305;-77
2022/12/28 01:38:11;;;;;;;;;;;;;;;;;;7360940;19;19998;-76
2022/12/28 01:40:36;;;;;;;;;;;;;;;;;;7360984;19;19914;-79
2022/12/28 01:43:01;;;;;;;;;;;;;;;;;;7358410;19;20237;-77
2022/12/28 01:45:26;;;;;;;;;;;;;;;;;;7329589;19;19937;-78
2022/12/28 01:47:52;;;;;;;;;;;;;;;;;;7357921;19;19927;-77
2022/12/28 01:50:17;;;;;;;;;;;;;;;;;;7357439;19;20003;-77
2022/12/28 01:52:43;;;;;;;;;;;;;;;;;;7361554;19;19923;-77
2022/12/28 01:55:08;;;;;;;;;;;;;;;;;;7359756;19;19918;-76
2022/12/28 01:57:33;;;;;;;;;;;;;;;;;;7364725;19;19950;-76
2022/12/28 01:59:58;;;;;;;;;;;;;;;;;;7356254;19;20025;-76
2022/12/28 02:02:23;;;;;;;;;;;;;;;;;;7358813;19;20291;-77
2022/12/28 02:04:49;;;;;;;;;;;;;;;;;;7366008;19;20047;-78
2022/12/28 02:07:14;;;;;;;;;;;;;;;;;;7360740;19;19924;-76
2022/12/28 02:09:39;;;;;;;;;;;;;;;;;;7356368;19;20253;-77
2022/12/28 02:12:04;;;;;;;;;;;;;;;;;;7368159;19;20025;-77
2022/12/28 02:14:29;;;;;;;;;;;;;;;;;;7359124;19;19954;-78
2022/12/28 02:16:54;;;;;;;;;;;;;;;;;;7367185;19;19927;-77
2022/12/28 02:19:19;;;;;;;;;;;;;;;;;;7356521;19;19918;-76
2022/12/28 02:21:44;;;;;;;;;;;;;;;;;;7363681;19;19956;-76
2022/12/28 02:24:09;;;;;;;;;;;;;;;;;;7364485;19;19911;-77
2022/12/28 02:26:35;;;;;;;;;;;;;;;;;;7359395;19;20297;-76
2022/12/28 02:29:00;;;;;;;;;;;;;;;;;;7363437;19;19923;-76
2022/12/28 02:31:25;;;;;;;;;;;;;;;;;;7359599;19;20575;-77
2022/12/28 02:33:50;;;;;;;;;;;;;;;;;;7364960;19;19933;-76
2022/12/28 02:36:15;;;;;;;;;;;;;;;;;;7362782;19;20324;-76
2022/12/28 02:38:40;;;;;;;;;;;;;;;;;;7367534;19;19933;-77
2022/12/28 02:41:05;;;;;;;;;;;;;;;;;;7363299;19;20406;-76
2022/12/28 02:43:30;;;;;;;;;;;;;;;;;;7362535;19;19974;-77
2022/12/28 02:51:23;;;;;;;;;;;;;;;;;;7267454;19;20213;-74
2022/12/28 02:53:48;;;;;;;;;;;;;;;;;;7267717;19;19923;-76
2022/12/28 02:56:14;;;;;;;;;;;;;;;;;;7262979;19;20832;-74
2022/12/28 02:58:39;;;;;;;;;;;;;;;;;;7267034;19;19919;-74
2022/12/28 03:01:04;;;;;;;;;;;;;;;;;;7264004;19;19946;-74
2022/12/28 03:03:29;;;;;;;;;;;;;;;;;;7272141;19;20595;-77
2022/12/28 03:08:38;;;;;;;;;;;;;;;;;;7270111;19;20677;-77
2022/12/28 03:11:03;;;;;;;;;;;;;;;;;;7265379;19;20162;-75
2022/12/28 03:13:44;;;;;;;;;;;;;;;;;;7263751;19;20689;-74
2022/12/28 03:16:09;;;;;;;;;;;;;;;;;;7249357;19;19922;-74
2022/12/28 03:32:14;;;;;;;;;;;;;;;;;;7264377;19;20217;-76
2022/12/28 03:34:39;;;;;;;;;;;;;;;;;;7270723;19;19927;-75
2022/12/28 03:37:04;;;;;;;;;;;;;;;;;;7266718;19;19945;-75
2022/12/28 03:39:30;;;;;;;;;;;;;;;;;;7265740;19;20542;-74
2022/12/28 03:44:39;;;;;;;;;;;;;;;;;;7284819;19;19931;-75
2022/12/28 03:47:04;;;;;;;;;;;;;;;;;;7364505;19;19923;-74
2022/12/28 03:49:30;;;;;;;;;;;;;;;;;;7367296;19;20041;-75
2022/12/28 03:51:55;;;;;;;;;;;;;;;;;;7371166;19;19927;-75
2022/12/28 03:54:20;;;;;;;;;;;;;;;;;;7362150;19;19923;-75
2022/12/28 03:56:45;;;;;;;;;;;;;;;;;;7369518;19;19952;-76
2022/12/28 03:59:10;;;;;;;;;;;;;;;;;;7367184;19;19933;-74
2022/12/28 04:01:35;;;;;;;;;;;;;;;;;;7362282;19;20282;-76
2022/12/28 04:04:01;;;;;;;;;;;;;;;;;;7370811;19;19935;-77
2022/12/28 04:06:26;;;;;;;;;;;;;;;;;;7359127;19;19911;-77
2022/12/28 04:08:51;;;;;;;;;;;;;;;;;;7364355;19;20349;-76
2022/12/28 04:11:16;;;;;;;;;;;;;;;;;;7360387;19;20145;-76
2022/12/28 04:13:41;;;;;;;;;;;;;;;;;;7354528;19;19911;-75
2022/12/28 04:16:06;;;;;;;;;;;;;;;;;;7358135;19;20226;-76
2022/12/28 04:18:31;;;;;;;;;;;;;;;;;;7365384;19;19918;-76
2022/12/28 04:20:56;;;;;;;;;;;;;;;;;;7363376;19;19966;-75
2022/12/28 04:23:22;;;;;;;;;;;;;;;;;;7365695;19;20322;-77
2022/12/28 04:25:47;;;;;;;;;;;;;;;;;;7368242;19;19934;-76
2022/12/28 04:28:12;;;;;;;;;;;;;;;;;;7361191;19;20360;-74
2022/12/28 04:30:37;;;;;;;;;;;;;;;;;;7362024;19;19959;-75
2022/12/28 04:33:02;;;;;;;;;;;;;;;;;;7371286;19;20340;-76
2022/12/28 04:35:27;;;;;;;;;;;;;;;;;;7366343;19;20023;-76
2022/12/28 04:37:52;;;;;;;;;;;;;;;;;;7368823;19;19971;-76
2022/12/28 04:40:18;;;;;;;;;;;;;;;;;;7362440;19;20032;-75
2022/12/28 04:42:43;;;;;;;;;;;;;;;;;;7365082;19;20255;-77
2022/12/28 04:45:08;;;;;;;;;;;;;;;;;;7364503;19;20442;-76
2022/12/28 04:47:33;;;;;;;;;;;;;;;;;;7364695;19;19911;-75
2022/12/28 04:49:58;;;;;;;;;;;;;;;;;;7367343;19;19981;-75
2022/12/28 04:52:23;;;;;;;;;;;;;;;;;;7366029;19;19922;-76
2022/12/28 04:54:48;;;;;;;;;;;;;;;;;;7365703;19;20327;-76
2022/12/28 04:57:13;;;;;;;;;;;;;;;;;;7369047;19;20576;-74
2022/12/28 04:59:39;;;;;;;;;;;;;;;;;;7365005;19;19947;-76
2022/12/28 05:02:04;;;;;;;;;;;;;;;;;;7364011;19;19935;-75
2022/12/28 05:04:29;;;;;;;;;;;;;;;;;;7366517;19;19944;-75
2022/12/28 05:06:54;;;;;;;;;;;;;;;;;;7367452;19;19929;-77
2022/12/28 05:09:19;;;;;;;;;;;;;;;;;;7365556;19;20056;-75
2022/12/28 05:11:45;;;;;;;;;;;;;;;;;;7364049;19;19923;-76
2022/12/28 05:14:10;;;;;;;;;;;;;;;;;;7366320;19;19922;-74
2022/12/28 05:16:35;;;;;;;;;;;;;;;;;;7364163;19;19931;-76
2022/12/28 05:19:00;;;;;;;;;;;;;;;;;;7364432;19;19937;-75
2022/12/28 05:21:25;;;;;;;;;;;;;;;;;;7352809;19;19923;-74
2022/12/28 05:23:50;;;;;;;;;;;;;;;;;;7356948;19;19987;-75
2022/12/28 05:26:15;;;;;;;;;;;;;;;;;;7362095;19;19915;-74
2022/12/28 05:28:40;;;;;;;;;;;;;;;;;;7351116;19;19918;-76
2022/12/28 05:31:05;;;;;;;;;;;;;;;;;;7360757;19;19961;-76
2022/12/28 05:33:31;;;;;;;;;;;;;;;;;;7365198;19;19963;-77
2022/12/28 05:35:56;;;;;;;;;;;;;;;;;;7368162;19;19927;-76
2022/12/28 05:38:21;;;;;;;;;;;;;;;;;;7362914;19;20401;-75
2022/12/28 05:40:46;;;;;;;;;;;;;;;;;;7363102;19;20109;-75
2022/12/28 05:43:11;;;;;;;;;;;;;;;;;;7368699;19;20245;-76
2022/12/28 05:45:36;;;;;;;;;;;;;;;;;;7359421;19;19919;-75
2022/12/28 05:48:01;;;;;;;;;;;;;;;;;;7369396;19;19927;-75
2022/12/28 05:50:26;;;;;;;;;;;;;;;;;;7364171;19;20431;-76
2022/12/28 05:52:51;;;;;;;;;;;;;;;;;;7361700;19;20321;-75
2022/12/28 05:55:17;;;;;;;;;;;;;;;;;;7364923;19;19919;-75
2022/12/28 05:57:42;;;;;;;;;;;;;;;;;;7366872;19;20337;-76
2022/12/28 06:00:07;;;;;;;;;;;;;;;;;;7357805;19;20285;-76
2022/12/28 06:02:32;;;;;;;;;;;;;;;;;;7361953;19;20319;-75
2022/12/28 06:04:57;;;;;;;;;;;;;;;;;;7365233;19;19914;-75
2022/12/28 06:07:22;;;;;;;;;;;;;;;;;;7365425;19;20229;-76
2022/12/28 06:09:47;;;;;;;;;;;;;;;;;;7360520;19;19919;-76
2022/12/28 06:12:12;;;;;;;;;;;;;;;;;;7366876;19;19919;-76
2022/12/28 06:14:37;;;;;;;;;;;;;;;;;;7358676;19;19946;-75
2022/12/28 06:17:03;;;;;;;;;;;;;;;;;;7364310;19;20336;-77
2022/12/28 06:19:28;;;;;;;;;;;;;;;;;;7362159;19;20215;-75
2022/12/28 06:21:53;;;;;;;;;;;;;;;;;;7363891;19;19930;-74
2022/12/28 06:24:18;;;;;;;;;;;;;;;;;;7361145;19;19918;-75
2022/12/28 06:26:43;;;;;;;;;;;;;;;;;;7364621;19;20368;-74
2022/12/28 06:29:08;;;;;;;;;;;;;;;;;;7362891;19;19923;-75
2022/12/28 06:31:33;;;;;;;;;;;;;;;;;;7357775;19;20547;-75
2022/12/28 06:33:58;;;;;;;;;;;;;;;;;;7355679;19;20071;-75
2022/12/28 06:36:24;;;;;;;;;;;;;;;;;;7336801;19;20333;-75
2022/12/28 06:38:49;;;;;;;;;;;;;;;;;;7342001;19;19923;-75
2022/12/28 06:41:14;;;;;;;;;;;;;;;;;;7363442;19;20410;-78
2022/12/28 06:43:39;;;;;;;;;;;;;;;;;;7362951;19;19940;-76
2022/12/28 06:46:04;;;;;;;;;;;;;;;;;;7360149;19;19919;-76
2022/12/28 06:48:29;;;;;;;;;;;;;;;;;;7361843;19;19951;-76
2022/12/28 06:50:54;;;;;;;;;;;;;;;;;;7363266;19;19947;-77
2022/12/28 06:53:19;;;;;;;;;;;;;;;;;;7358454;19;19934;-75
2022/12/28 06:55:44;;;;;;;;;;;;;;;;;;7351563;19;19986;-77
2022/12/28 06:58:09;;;;;;;;;;;;;;;;;;7367413;19;19922;-77
2022/12/28 07:00:35;;;;;;;;;;;;;;;;;;7355841;19;20278;-75
2022/12/28 07:03:00;;;;;;;;;;;;;;;;;;7352599;19;19922;-76
2022/12/28 07:05:25;;;;;;;;;;;;;;;;;;7359745;19;19933;-75
2022/12/28 07:07:50;;;;;;;;;;;;;;;;;;7359562;19;19911;-74
2022/12/28 07:10:15;;;;;;;;;;;;;;;;;;7365280;19;20352;-76
2022/12/28 07:12:40;;;;;;;;;;;;;;;;;;7363250;19;19991;-75
2022/12/28 07:15:05;;;;;;;;;;;;;;;;;;7361289;19;19935;-76
2022/12/28 07:17:31;;;;;;;;;;;;;;;;;;7363551;19;20293;-76
2022/12/28 07:19:56;;;;;;;;;;;;;;;;;;7365058;19;19922;-75
2022/12/28 07:22:21;;;;;;;;;;;;;;;;;;7362680;19;19946;-75
2022/12/28 07:24:46;;;;;;;;;;;;;;;;;;7358909;19;19933;-75
2022/12/28 07:27:11;;;;;;;;;;;;;;;;;;7356167;19;20350;-76
2022/12/28 07:29:36;;;;;;;;;;;;;;;;;;7356870;19;19938;-76
2022/12/28 07:32:02;;;;;;;;;;;;;;;;;;7363440;19;19922;-76
2022/12/28 07:34:27;;;;;;;;;;;;;;;;;;7364762;19;19915;-76
2022/12/28 07:36:52;;;;;;;;;;;;;;;;;;7372141;19;19918;-76
2022/12/28 07:39:17;;;;;;;;;;;;;;;;;;7342309;19;19994;-76
2022/12/28 07:41:42;;;;;;;;;;;;;;;;;;7366316;19;19926;-75
2022/12/28 07:44:07;;;;;;;;;;;;;;;;;;7356040;19;20042;-75
2022/12/28 07:46:32;;;;;;;;;;;;;;;;;;7360059;19;20028;-76
2022/12/28 07:48:58;;;;;;;;;;;;;;;;;;7370393;19;19987;-75
2022/12/28 07:51:23;;;;;;;;;;;;;;;;;;7361370;19;20598;-75
2022/12/28 07:53:48;;;;;;;;;;;;;;;;;;7359786;19;20337;-75
2022/12/28 07:56:13;;;;;;;;;;;;;;;;;;7364625;19;19928;-73
2022/12/28 07:58:38;;;;;;;;;;;;;;;;;;7371392;19;20502;-77
2022/12/28 08:01:03;;;;;;;;;;;;;;;;;;7354624;19;19915;-78
2022/12/28 08:03:28;;;;;;;;;;;;;;;;;;7371818;19;20023;-78
2022/12/28 08:05:53;;;;;;;;;;;;;;;;;;7373957;19;19974;-78
2022/12/28 08:08:19;;;;;;;;;;;;;;;;;;7364929;19;20180;-77
2022/12/28 08:10:44;;;;;;;;;;;;;;;;;;7367228;19;19923;-79
2022/12/28 08:13:09;;;;;;;;;;;;;;;;;;7373835;19;20324;-78
2022/12/28 08:15:34;;;;;;;;;;;;;;;;;;7362612;19;19918;-77
2022/12/28 08:17:59;;;;;;;;;;;;;;;;;;7367329;19;19911;-78
2022/12/28 08:20:24;;;;;;;;;;;;;;;;;;7370641;19;20274;-77
2022/12/28 08:22:49;;;;;;;;;;;;;;;;;;7357130;19;20016;-77
2022/12/28 08:25:15;;;;;;;;;;;;;;;;;;7361891;19;19926;-77
2022/12/28 08:27:40;;;;;;;;;;;;;;;;;;7358301;19;20178;-78
2022/12/28 08:30:05;;;;;;;;;;;;;;;;;;7369710;19;19959;-78
2022/12/28 08:32:30;;;;;;;;;;;;;;;;;;7365374;19;19943;-78
2022/12/28 08:34:55;;;;;;;;;;;;;;;;;;7372829;19;19918;-78
2022/12/28 08:37:20;;;;;;;;;;;;;;;;;;7373252;19;19931;-79
2022/12/28 08:39:45;;;;;;;;;;;;;;;;;;7368729;19;19923;-76
2022/12/28 08:42:10;;;;;;;;;;;;;;;;;;7370070;19;19944;-78
2022/12/28 08:44:36;;;;;;;;;;;;;;;;;;7366952;19;19911;-77
2022/12/28 08:47:01;;;;;;;;;;;;;;;;;;7369921;19;19926;-78
2022/12/28 08:49:26;;;;;;;;;;;;;;;;;;7347258;19;20396;-79
2022/12/28 08:51:51;;;;;;;;;;;;;;;;;;7368795;19;20050;-78
2022/12/28 08:54:16;;;;;;;;;;;;;;;;;;7369819;19;19971;-80
2022/12/28 08:56:41;;;;;;;;;;;;;;;;;;7370733;19;20221;-81
2022/12/28 08:59:06;;;;;;;;;;;;;;;;;;7369461;19;20071;-78
2022/12/28 09:01:31;;;;;;;;;;;;;;;;;;7357935;19;19927;-79
2022/12/28 09:03:57;;;;;;;;;;;;;;;;;;7373244;19;20301;-78
2022/12/28 09:06:22;;;;;;;;;;;;;;;;;;7372266;19;19951;-78
2022/12/28 09:08:47;;;;;;;;;;;;;;;;;;7368308;19;19931;-80
2022/12/28 09:11:12;;;;;;;;;;;;;;;;;;7370163;19;20007;-79
2022/12/28 09:13:37;;;;;;;;;;;;;;;;;;7369787;19;19923;-79
2022/12/28 09:16:02;;;;;;;;;;;;;;;;;;7363410;19;19935;-78
2022/12/28 09:18:27;;;;;;;;;;;;;;;;;;7367207;19;20025;-76
2022/12/28 09:20:52;;;;;;;;;;;;;;;;;;7371552;19;19915;-80
2022/12/28 09:23:17;;;;;;;;;;;;;;;;;;7369118;19;19911;-79
2022/12/28 09:25:42;;;;;;;;;;;;;;;;;;7364960;19;20256;-79
2022/12/28 09:28:08;;;;;;;;;;;;;;;;;;7370140;19;19954;-80
2022/12/28 09:30:33;;;;;;;;;;;;;;;;;;7365718;19;19986;-79
2022/12/28 09:35:42;;;;;;;;;;;;;;;;;;7366730;19;19922;-80
2022/12/28 09:38:07;;;;;;;;;;;;;;;;;;7369762;19;19922;-79
2022/12/28 09:40:32;;;;;;;;;;;;;;;;;;7366574;19;20053;-79
2022/12/28 09:42:57;;;;;;;;;;;;;;;;;;7373693;19;19968;-79
2022/12/28 09:45:22;;;;;;;;;;;;;;;;;;7365057;19;20321;-80
2022/12/28 09:47:48;;;;;;;;;;;;;;;;;;7368219;19;20019;-78
2022/12/28 09:50:13;;;;;;;;;;;;;;;;;;7369966;19;19926;-79
2022/12/28 09:52:38;;;;;;;;;;;;;;;;;;7367156;19;19925;-79
2022/12/28 09:55:04;;;;;;;;;;;;;;;;;;7365780;19;20399;-79
2022/12/28 09:57:29;;;;;;;;;;;;;;;;;;7366148;19;20018;-79
2022/12/28 09:59:54;;;;;;;;;;;;;;;;;;7361753;19;19923;-79
2022/12/28 10:02:19;;;;;;;;;;;;;;;;;;7370033;19;19925;-79
2022/12/28 10:04:44;;;;;;;;;;;;;;;;;;7366672;19;19975;-80
2022/12/28 10:07:09;;;;;;;;;;;;;;;;;;7365362;19;20021;-79
2022/12/28 10:09:34;;;;;;;;;;;;;;;;;;7364533;19;20339;-78
2022/12/28 10:12:00;;;;;;;;;;;;;;;;;;7369943;19;19921;-78
2022/12/28 10:14:26;;;;;;;;;;;;;;;;;;7364324;19;19975;-78
2022/12/28 10:16:51;;;;;;;;;;;;;;;;;;7367926;19;20220;-79
2022/12/28 10:19:16;;;;;;;;;;;;;;;;;;7369124;19;19952;-79
2022/12/28 10:21:41;;;;;;;;;;;;;;;;;;7366873;19;20483;-78
2022/12/28 10:24:06;;;;;;;;;;;;;;;;;;7364869;19;20011;-79
2022/12/28 10:26:32;;;;;;;;;;;;;;;;;;7366811;19;20522;-79
2022/12/28 10:28:57;;;;;;;;;;;;;;;;;;7367945;19;19922;-79
2022/12/28 10:31:22;;;;;;;;;;;;;;;;;;7364688;19;20248;-79
2022/12/28 10:33:47;;;;;;;;;;;;;;;;;;7358974;19;19955;-78
2022/12/28 10:36:13;;;;;;;;;;;;;;;;;;7361314;19;19931;-76
2022/12/28 10:38:38;;;;;;;;;;;;;;;;;;7345024;19;19945;-76
2022/12/28 10:41:03;;;;;;;;;;;;;;;;;;7353596;19;19932;-77
2022/12/28 10:43:28;;;;;;;;;;;;;;;;;;7365430;19;19923;-76
2022/12/28 10:45:53;;;;;;;;;;;;;;;;;;7358012;19;19922;-76
2022/12/28 10:48:18;;;;;;;;;;;;;;;;;;7367708;19;20419;-76
2022/12/28 10:50:43;;;;;;;;;;;;;;;;;;7361765;19;20260;-76
2022/12/28 10:53:08;;;;;;;;;;;;;;;;;;7365160;19;20224;-76
2022/12/28 10:55:34;;;;;;;;;;;;;;;;;;7357898;19;20423;-76
2022/12/28 10:57:59;;;;;;;;;;;;;;;;;;7361014;19;19957;-76
2022/12/28 11:00:24;;;;;;;;;;;;;;;;;;7360037;19;19984;-76
2022/12/28 11:02:50;;;;;;;;;;;;;;;;;;7355055;19;19926;-76
2022/12/28 11:05:15;;;;;;;;;;;;;;;;;;7357444;19;19949;-76
2022/12/28 11:07:42;;;;;;;;;;;;;;;;;;7340129;19;20337;-75
2022/12/28 11:10:08;;;;;;;;;;;;;;;;;;7368687;19;19922;-75
2022/12/28 11:12:35;;;;;;;;;;;;;;;;;;7363773;19;20408;-77
2022/12/28 11:15:00;;;;;;;;;;;;;;;;;;7367492;19;19926;-76
2022/12/28 11:17:25;;;;;;;;;;;;;;;;;;7370736;19;19930;-77
2022/12/28 11:19:51;;;;;;;;;;;;;;;;;;7364030;19;19919;-76
2022/12/28 11:22:16;;;;;;;;;;;;;;;;;;7373150;19;20002;-76
2022/12/28 11:24:41;;;;;;;;;;;;;;;;;;7365633;19;19966;-76
2022/12/28 11:27:06;;;;;;;;;;;;;;;;;;7365186;19;19994;-76
2022/12/28 11:29:31;;;;;;;;;;;;;;;;;;7363997;19;19929;-76
2022/12/28 11:31:56;;;;;;;;;;;;;;;;;;7364732;19;19911;-75
2022/12/28 11:34:21;;;;;;;;;;;;;;;;;;7366317;19;19923;-76
2022/12/28 11:36:47;;;;;;;;;;;;;;;;;;7350524;19;19967;-76
2022/12/28 11:39:12;;;;;;;;;;;;;;;;;;7337089;19;19934;-77
2022/12/28 11:41:39;;;;;;;;;;;;;;;;;;7357239;19;19942;-76
2022/12/28 11:44:04;;;;;;;;;;;;;;;;;;7372013;19;19915;-75
2022/12/28 11:46:29;;;;;;;;;;;;;;;;;;7361123;19;19934;-76
2022/12/28 11:48:55;;;;;;;;;;;;;;;;;;7361401;19;19915;-76
2022/12/28 11:51:20;;;;;;;;;;;;;;;;;;7357222;19;19923;-76
2022/12/28 11:53:45;;;;;;;;;;;;;;;;;;7365072;19;20334;-76
2022/12/28 11:56:11;;;;;;;;;;;;;;;;;;7357932;19;19972;-76
2022/12/28 11:58:36;;;;;;;;;;;;;;;;;;7355693;19;20057;-76
2022/12/28 12:01:01;;;;;;;;;;;;;;;;;;7359422;19;19915;-76
2022/12/28 12:03:26;;;;;;;;;;;;;;;;;;7365190;19;20076;-76
2022/12/28 12:05:51;;;;;;;;;;;;;;;;;;7365231;19;19964;-75
2022/12/28 12:08:17;;;;;;;;;;;;;;;;;;7353065;19;19934;-76
2022/12/28 12:10:42;;;;;;;;;;;;;;;;;;7344275;19;19927;-76
2022/12/28 12:13:07;;;;;;;;;;;;;;;;;;7369427;19;19915;-76
2022/12/28 12:15:32;;;;;;;;;;;;;;;;;;7342139;19;20393;-76
2022/12/28 12:17:57;;;;;;;;;;;;;;;;;;7359374;19;20538;-76
2022/12/28 12:20:22;;;;;;;;;;;;;;;;;;7362246;19;19933;-76
2022/12/28 12:22:48;;;;;;;;;;;;;;;;;;7361080;19;20252;-76
2022/12/28 12:25:13;;;;;;;;;;;;;;;;;;7367706;19;19919;-76
2022/12/28 12:27:38;;;;;;;;;;;;;;;;;;7362534;19;20291;-77
2022/12/28 12:30:03;;;;;;;;;;;;;;;;;;7358084;19;19935;-76
2022/12/28 12:32:29;;;;;;;;;;;;;;;;;;7371876;19;20294;-76
2022/12/28 12:34:54;;;;;;;;;;;;;;;;;;7351696;19;19922;-75
2022/12/28 12:37:19;;;;;;;;;;;;;;;;;;7368714;19;19923;-74
2022/12/28 12:39:44;;;;;;;;;;;;;;;;;;7359847;19;19930;-74
2022/12/28 16:45:07;;;;;;;;;;;;;;;;;;7309385;19;20078;-76
2022/12/28 16:47:32;;;;;;;;;;;;;;;;;;7347499;19;19926;-75
2022/12/28 16:49:57;;;;;;;;;;;;;;;;;;7333527;19;19929;-77
2022/12/28 16:52:22;;;;;;;;;;;;;;;;;;7355397;19;19911;-77
2022/12/28 16:54:47;;;;;;;;;;;;;;;;;;7355748;19;19942;-76
2022/12/28 16:57:12;;;;;;;;;;;;;;;;;;7355025;19;20270;-77
2022/12/28 16:59:37;;;;;;;;;;;;;;;;;;7358649;19;20027;-75
2022/12/28 17:02:04;;;;;;;;;;;;;;;;;;7354291;19;19937;-78
2022/12/28 17:04:29;;;;;;;;;;;;;;;;;;7365886;19;19918;-78
2022/12/28 17:06:54;;;;;;;;;;;;;;;;;;7362681;19;19926;-78
2022/12/28 17:09:19;;;;;;;;;;;;;;;;;;7364648;19;19923;-78
2022/12/28 17:11:44;;;;;;;;;;;;;;;;;;7360595;19;20007;-77
2022/12/28 17:14:09;;;;;;;;;;;;;;;;;;7348846;19;20015;-77
2022/12/28 17:16:34;;;;;;;;;;;;;;;;;;7351308;19;19919;-78
2022/12/28 17:19:00;;;;;;;;;;;;;;;;;;7363394;19;19970;-77
2022/12/28 17:21:25;;;;;;;;;;;;;;;;;;7360001;19;19943;-77
2022/12/28 17:23:50;;;;;;;;;;;;;;;;;;7359947;19;20025;-78
2022/12/28 17:26:15;;;;;;;;;;;;;;;;;;7357987;19;19929;-79
2022/12/28 17:28:40;;;;;;;;;;;;;;;;;;7368850;19;19974;-78
2022/12/28 17:31:05;;;;;;;;;;;;;;;;;;7360304;19;19930;-78
2022/12/28 17:33:30;;;;;;;;;;;;;;;;;;7367603;19;19927;-78
2022/12/28 17:35:56;;;;;;;;;;;;;;;;;;7352896;19;19918;-77
2022/12/28 17:38:21;;;;;;;;;;;;;;;;;;7328013;19;19921;-77
2022/12/28 17:40:46;;;;;;;;;;;;;;;;;;7348317;19;19922;-77
2022/12/28 17:43:11;;;;;;;;;;;;;;;;;;7361830;19;20573;-79
2022/12/28 17:45:37;;;;;;;;;;;;;;;;;;7352428;19;20022;-78
2022/12/28 17:48:02;;;;;;;;;;;;;;;;;;7350057;19;20321;-78
2022/12/28 17:50:27;;;;;;;;;;;;;;;;;;7356883;19;19976;-77
2022/12/28 17:52:52;;;;;;;;;;;;;;;;;;7363934;19;19915;-78
2022/12/28 17:55:17;;;;;;;;;;;;;;;;;;7356960;19;20320;-77
2022/12/28 17:57:42;;;;;;;;;;;;;;;;;;7357439;19;19927;-77
2022/12/28 18:00:07;;;;;;;;;;;;;;;;;;7361912;19;19930;-77
2022/12/28 18:02:32;;;;;;;;;;;;;;;;;;7350845;19;19919;-78
2022/12/28 18:04:57;;;;;;;;;;;;;;;;;;7354376;19;20403;-77
2022/12/28 18:07:23;;;;;;;;;;;;;;;;;;7360787;19;19915;-78
2022/12/28 18:09:48;;;;;;;;;;;;;;;;;;7356921;19;20113;-77
2022/12/28 18:12:15;;;;;;;;;;;;;;;;;;7349734;19;19943;-77
2022/12/28 18:14:40;;;;;;;;;;;;;;;;;;7357575;19;19918;-76
2022/12/28 18:17:06;;;;;;;;;;;;;;;;;;7350732;19;19918;-77
2022/12/28 18:19:31;;;;;;;;;;;;;;;;;;7347360;19;19922;-76
2022/12/28 18:21:56;;;;;;;;;;;;;;;;;;7356728;19;19926;-77
2022/12/28 18:24:21;;;;;;;;;;;;;;;;;;7335646;19;19918;-78
2022/12/28 18:26:46;;;;;;;;;;;;;;;;;;7355152;19;19915;-77
2022/12/28 18:29:11;;;;;;;;;;;;;;;;;;7353620;19;20003;-76
2022/12/28 18:31:36;;;;;;;;;;;;;;;;;;7360248;19;19980;-77
2022/12/28 18:34:02;;;;;;;;;;;;;;;;;;7362367;19;19918;-76
2022/12/28 18:36:27;;;;;;;;;;;;;;;;;;7359571;19;19922;-75
2022/12/28 18:38:52;;;;;;;;;;;;;;;;;;7355815;19;19963;-77
2022/12/28 18:41:17;;;;;;;;;;;;;;;;;;7360820;19;20465;-77
2022/12/28 18:43:43;;;;;;;;;;;;;;;;;;7329489;19;19918;-77
2022/12/28 18:46:08;;;;;;;;;;;;;;;;;;7354448;19;19999;-77
2022/12/28 18:48:33;;;;;;;;;;;;;;;;;;7360280;19;20240;-78
2022/12/28 18:50:58;;;;;;;;;;;;;;;;;;7359885;19;20363;-77
2022/12/28 18:53:23;;;;;;;;;;;;;;;;;;7361633;19;19923;-77
2022/12/28 18:55:48;;;;;;;;;;;;;;;;;;7355443;19;19926;-76
2022/12/28 18:58:15;;;;;;;;;;;;;;;;;;7357683;19;20027;-77
2022/12/28 19:00:41;;;;;;;;;;;;;;;;;;7341731;19;19925;-76
2022/12/28 19:03:06;;;;;;;;;;;;;;;;;;7354684;19;20598;-77
2022/12/28 19:05:31;;;;;;;;;;;;;;;;;;7359922;19;19922;-77
2022/12/28 19:07:58;;;;;;;;;;;;;;;;;;7358124;19;19935;-77
2022/12/28 19:10:23;;;;;;;;;;;;;;;;;;7356863;19;20311;-78
2022/12/28 19:12:48;;;;;;;;;;;;;;;;;;7350928;19;20212;-75
2022/12/28 19:15:14;;;;;;;;;;;;;;;;;;7350242;19;19942;-77
2022/12/28 19:17:40;;;;;;;;;;;;;;;;;;7363183;19;19938;-77
2022/12/28 19:20:05;;;;;;;;;;;;;;;;;;7357643;19;20228;-77
2022/12/28 19:22:30;;;;;;;;;;;;;;;;;;7355064;19;20253;-77
2022/12/28 19:24:55;;;;;;;;;;;;;;;;;;7356481;19;19935;-77
2022/12/28 19:27:20;;;;;;;;;;;;;;;;;;7361525;19;20366;-78
2022/12/28 19:29:45;;;;;;;;;;;;;;;;;;7348634;19;19915;-77
2022/12/28 19:32:11;;;;;;;;;;;;;;;;;;7364183;19;20044;-78
2022/12/28 19:34:36;;;;;;;;;;;;;;;;;;7368304;19;19929;-77
2022/12/28 19:37:01;;;;;;;;;;;;;;;;;;7367546;19;19939;-76
2022/12/28 19:39:26;;;;;;;;;;;;;;;;;;7367021;19;20407;-77
2022/12/28 19:41:51;;;;;;;;;;;;;;;;;;7362780;19;19953;-77
2022/12/28 19:44:19;;;;;;;;;;;;;;;;;;7353162;19;19934;-78
2022/12/28 19:46:46;;;;;;;;;;;;;;;;;;7364269;19;20058;-78
2022/12/28 19:49:11;;;;;;;;;;;;;;;;;;7364217;19;19915;-77
2022/12/28 19:51:37;;;;;;;;;;;;;;;;;;7357343;19;19935;-77
2022/12/28 19:54:02;;;;;;;;;;;;;;;;;;7363067;19;19931;-77
2022/12/28 19:56:27;;;;;;;;;;;;;;;;;;7358821;19;19933;-77
2022/12/28 19:58:52;;;;;;;;;;;;;;;;;;7372394;19;19975;-77
2022/12/28 20:01:17;;;;;;;;;;;;;;;;;;7354738;19;20293;-76
2022/12/28 20:03:42;;;;;;;;;;;;;;;;;;7367300;19;19914;-77
2022/12/28 20:06:07;;;;;;;;;;;;;;;;;;7355969;19;19923;-76
2022/12/28 20:08:33;;;;;;;;;;;;;;;;;;7363680;19;19938;-77
2022/12/28 20:10:59;;;;;;;;;;;;;;;;;;7362931;19;19946;-76
2022/12/28 20:13:24;;;;;;;;;;;;;;;;;;7365728;19;19976;-78
2022/12/28 20:15:49;;;;;;;;;;;;;;;;;;7361349;19;20046;-77
2022/12/28 20:18:14;;;;;;;;;;;;;;;;;;7345790;19;19979;-76
2022/12/28 20:20:39;;;;;;;;;;;;;;;;;;7354816;19;19923;-77
2022/12/28 20:23:04;;;;;;;;;;;;;;;;;;7353069;19;19982;-77
2022/12/28 20:25:29;;;;;;;;;;;;;;;;;;7357642;19;19987;-78
2022/12/28 20:27:55;;;;;;;;;;;;;;;;;;7369644;19;19929;-76
2022/12/28 20:30:20;;;;;;;;;;;;;;;;;;7355698;19;19926;-77
2022/12/28 20:32:45;;;;;;;;;;;;;;;;;;7364538;19;19926;-77
2022/12/28 20:35:10;;;;;;;;;;;;;;;;;;7363477;19;19919;-78
2022/12/28 20:37:35;;;;;;;;;;;;;;;;;;7358437;19;19941;-76
2022/12/28 20:40:01;;;;;;;;;;;;;;;;;;7357244;19;19940;-75
2022/12/28 20:45:09;;;;;;;;;;;;;;;;;;7352075;19;20308;-77
2022/12/28 20:47:35;;;;;;;;;;;;;;;;;;7361980;19;20516;-78
2022/12/28 20:50:02;;;;;;;;;;;;;;;;;;7356667;19;20288;-77
2022/12/28 20:52:27;;;;;;;;;;;;;;;;;;7348965;19;19939;-76
2022/12/28 20:54:52;;;;;;;;;;;;;;;;;;7354755;19;19923;-77
2022/12/28 20:57:18;;;;;;;;;;;;;;;;;;7350148;19;19977;-78
2022/12/28 20:59:43;;;;;;;;;;;;;;;;;;7348528;19;19922;-75
2022/12/28 21:02:08;;;;;;;;;;;;;;;;;;7349065;19;20477;-75
2022/12/28 21:04:33;;;;;;;;;;;;;;;;;;7349274;19;19974;-76